Time;durP1;ratioP1;P1;durP2;ratioP2;P2;SDS_P1;SDS_P2;PMS_P1;PMS_P2;Temp;Humidity;BMP_temperature;BMP_pressure;BME280_temperature;BME280_humidity;BME280_pressure;Samples;Min_cycle;Max_cycle;Signal;HPM_P1;HPM_P2
2023/01/10 00:01:28;;;;;;;10.60;5.35;;;;;;;2.34;76.36;100343.34;4964605;28;20495;-77
2023/01/10 00:03:55;;;;;;;9.55;4.75;;;;;;;2.34;77.01;100344.19;4957808;28;20056;-78
2023/01/10 00:06:22;;;;;;;13.25;5.00;;;;;;;2.33;76.91;100354.50;4969566;28;20069;-77
2023/01/10 00:08:50;;;;;;;12.52;5.28;;;;;;;2.31;76.92;100348.47;4965726;28;20043;-77
2023/01/10 00:14:01;;;;;;;13.25;5.82;;;;;;;2.28;76.97;100344.16;4947219;28;20050;-77
2023/01/10 00:16:28;;;;;;;9.60;4.53;;;;;;;2.28;77.18;100338.13;4965637;28;20052;-76
2023/01/10 00:18:55;;;;;;;14.15;5.25;;;;;;;2.26;76.91;100340.69;4965745;28;20051;-77
2023/01/10 00:21:22;;;;;;;12.30;5.50;;;;;;;2.25;76.81;100333.81;4966360;28;20066;-77
2023/01/10 00:23:50;;;;;;;11.13;5.80;;;;;;;2.28;77.13;100339.00;4960859;28;20097;-78
2023/01/10 00:26:16;;;;;;;8.35;5.07;;;;;;;2.27;76.88;100329.53;4961075;28;20459;-77
2023/01/10 00:28:44;;;;;;;13.55;6.03;;;;;;;2.26;77.21;100335.53;4965987;28;20066;-77
2023/01/10 00:31:12;;;;;;;14.07;6.05;;;;;;;2.25;77.14;100333.81;4967627;28;20283;-77
2023/01/10 00:33:39;;;;;;;11.85;4.75;;;;;;;2.27;77.33;100334.69;4965757;28;20047;-78
2023/01/10 00:36:08;;;;;;;12.20;4.63;;;;;;;2.27;77.36;100328.66;4961448;28;20051;-77
2023/01/10 00:38:36;;;;;;;13.90;6.13;;;;;;;2.25;77.42;100324.38;4961762;28;20047;-77
2023/01/10 00:43:55;;;;;;;10.95;4.40;;;;;;;2.26;77.21;100332.97;4963222;28;20144;-77
2023/01/10 00:43:56;;;;;;;12.13;5.28;;;;;;;2.29;77.39;100321.81;4964628;28;20154;-77
2023/01/10 00:46:23;;;;;;;9.13;5.18;;;;;;;2.27;77.71;100318.38;4968645;28;20066;-77
2023/01/10 00:48:49;;;;;;;9.32;4.30;;;;;;;2.27;77.79;100319.22;4963102;28;20484;-77
2023/01/10 00:51:16;;;;;;;10.52;4.70;;;;;;;2.25;77.50;100313.22;4963805;28;20047;-77
2023/01/10 00:53:43;;;;;;;10.23;4.43;;;;;;;2.29;77.84;100317.53;4967818;28;20064;-77
2023/01/10 00:56:11;;;;;;;10.20;3.35;;;;;;;2.29;77.94;100309.78;4965077;28;20054;-77
2023/01/10 00:58:38;;;;;;;10.52;4.82;;;;;;;2.30;77.87;100321.81;4962088;28;20059;-77
2023/01/10 01:01:05;;;;;;;9.18;3.25;;;;;;;2.30;78.50;100315.81;4969388;28;20540;-77
2023/01/10 01:03:32;;;;;;;4.15;2.97;;;;;;;2.30;77.70;100321.81;4962990;28;20158;-77
2023/01/10 01:06:05;;;;;;;5.93;2.75;;;;;;;2.31;78.26;100325.28;4961009;28;20138;-77
2023/01/10 01:08:32;;;;;;;8.35;3.03;;;;;;;2.31;78.14;100327.84;4965793;28;20047;-78
2023/01/10 01:10:58;;;;;;;4.30;1.10;;;;;;;2.31;77.73;100321.00;4965457;28;20047;-78
2023/01/10 01:13:27;;;;;;;5.25;2.85;;;;;;;2.32;78.36;100325.28;4962733;28;20488;-77
2023/01/10 01:15:53;;;;;;;5.82;3.22;;;;;;;2.33;77.88;100324.41;4963206;28;20047;-77
2023/01/10 01:18:22;;;;;;;8.02;3.30;;;;;;;2.33;77.81;100316.69;4964639;28;20051;-78
2023/01/10 01:20:53;;;;;;;9.13;3.85;;;;;;;2.34;78.04;100323.59;4965276;28;20043;-77
2023/01/10 01:23:20;;;;;;;3.47;1.70;;;;;;;2.30;78.55;100315.81;4963683;28;20046;-78
2023/01/10 01:25:50;;;;;;;5.15;2.58;;;;;;;2.37;78.18;100327.91;4966528;28;20050;-78
2023/01/10 01:28:17;;;;;;;4.65;1.75;;;;;;;2.38;78.55;100327.91;4962347;28;20495;-78
2023/01/10 01:30:45;;;;;;;3.40;1.63;;;;;;;2.39;77.96;100332.22;4966691;28;20062;-77
2023/01/10 01:33:12;;;;;;;4.75;2.08;;;;;;;2.40;78.15;100331.34;4961771;28;20054;-78
2023/01/10 01:35:42;;;;;;;4.82;1.92;;;;;;;2.37;78.03;100327.91;4965147;28;20054;-77
2023/01/10 01:38:09;;;;;;;3.97;1.75;;;;;;;2.43;77.90;100333.97;4965825;28;20035;-77
2023/01/10 01:40:37;;;;;;;3.08;1.77;;;;;;;2.44;78.19;100334.81;4962742;28;20050;-78
2023/01/10 01:43:04;;;;;;;5.95;1.63;;;;;;;2.42;78.14;100327.09;4960802;28;20058;-77
2023/01/10 01:45:37;;;;;;;2.50;1.58;;;;;;;2.48;78.06;100331.44;4960943;28;20082;-77
2023/01/10 01:48:13;;;;;;;3.75;1.67;;;;;;;2.46;78.03;100318.50;4958916;28;20051;-78
2023/01/10 01:50:46;;;;;;;3.88;2.30;;;;;;;2.50;78.21;100328.84;4949403;28;20365;-78
2023/01/10 01:53:18;;;;;;;4.93;2.47;;;;;;;2.51;78.49;100328.00;4968396;28;20530;-78
2023/01/10 01:55:47;;;;;;;2.45;1.52;;;;;;;2.41;77.78;100309.88;4961837;28;20102;-77
2023/01/10 01:58:17;;;;;;;2.85;1.23;;;;;;;2.52;78.00;100333.16;4965423;28;20058;-81
2023/01/10 02:00:44;;;;;;;3.58;1.48;;;;;;;2.53;78.17;100336.59;4964040;28;20113;-77
2023/01/10 02:03:15;;;;;;;3.33;1.45;;;;;;;2.52;77.62;100334.88;4961506;28;20043;-77
2023/01/10 02:05:43;;;;;;;2.40;1.13;;;;;;;2.53;77.65;100328.84;4965018;28;20081;-78
2023/01/10 02:08:12;;;;;;;2.08;1.08;;;;;;;2.52;77.62;100332.31;4968907;28;20053;-78
2023/01/10 02:10:43;;;;;;;3.00;1.70;;;;;;;2.52;77.75;100329.72;4960981;28;20046;-79
2023/01/10 02:13:14;;;;;;;2.50;1.17;;;;;;;2.53;78.23;100329.72;4959184;28;20079;-77
2023/01/10 02:15:41;;;;;;;2.83;1.50;;;;;;;2.54;77.80;100333.19;4959178;28;20051;-77
2023/01/10 02:18:08;;;;;;;1.73;0.80;;;;;;;2.52;77.59;100329.72;4967835;28;20046;-77
2023/01/10 02:20:52;;;;;;;2.13;1.15;;;;;;;2.56;78.39;100336.63;4960282;28;20055;-77
2023/01/10 02:23:57;;;;;;;2.47;0.95;;;;;;;2.56;78.08;100337.50;4963677;28;20514;-77
2023/01/10 02:27:03;;;;;;;1.60;0.80;;;;;;;2.53;77.74;100334.88;4964222;28;20480;-77
2023/01/10 02:30:09;;;;;;;1.83;0.75;;;;;;;2.53;77.47;100334.88;4958048;28;20566;-78
2023/01/10 02:32:48;;;;;;;0.98;0.50;;;;;;;2.48;78.09;100337.44;4961275;28;20055;-78
2023/01/10 02:35:29;;;;;;;1.13;0.60;;;;;;;2.50;77.57;100328.84;4960499;28;20047;-77
2023/01/10 02:38:05;;;;;;;0.75;0.60;;;;;;;2.52;78.41;100333.16;4964065;28;20046;-77
2023/01/10 02:40:45;;;;;;;1.33;0.45;;;;;;;2.53;78.20;100334.88;4960160;28;20043;-77
2023/01/10 02:43:17;;;;;;;0.68;0.40;;;;;;;2.53;77.74;100334.00;4959590;28;20467;-78
2023/01/10 02:45:50;;;;;;;2.17;0.60;;;;;;;2.53;78.26;100329.72;4967044;28;20047;-77
2023/01/10 02:48:18;;;;;;;1.98;0.40;;;;;;;2.54;78.08;100328.88;4959306;28;20047;-77
2023/01/10 02:50:56;;;;;;;1.90;0.30;;;;;;;2.53;78.32;100327.13;4965244;28;20058;-78
2023/01/10 02:53:27;;;;;;;2.25;0.38;;;;;;;2.53;77.56;100328.84;4959199;28;20055;-78
2023/01/10 02:56:13;;;;;;;1.13;0.40;;;;;;;2.52;77.84;100333.16;4963385;28;20145;-77
2023/01/10 02:58:55;;;;;;;0.93;0.30;;;;;;;2.54;77.87;100333.19;4962123;28;20050;-78
2023/01/10 03:01:34;;;;;;;2.20;0.40;;;;;;;2.54;77.76;100335.75;4966585;28;20066;-77
2023/01/10 03:04:12;;;;;;;0.70;0.30;;;;;;;2.55;77.79;100332.31;4966511;28;20062;-78
2023/01/10 03:06:46;;;;;;;0.65;0.40;;;;;;;2.54;77.59;100322.88;4958233;28;20046;-77
2023/01/10 03:09:21;;;;;;;1.58;0.40;;;;;;;2.54;77.47;100325.44;4957350;28;20055;-77
2023/01/10 03:11:50;;;;;;;0.40;0.22;;;;;;;2.53;77.86;100328.84;4961390;28;20051;-77
2023/01/10 03:14:21;;;;;;;0.50;0.20;;;;;;;2.53;77.77;100323.69;4961253;28;20047;-77
2023/01/10 03:16:53;;;;;;;2.47;0.40;;;;;;;2.53;77.76;100328.84;4967432;28;20496;-78
2023/01/10 03:19:24;;;;;;;0.40;0.30;;;;;;;2.50;77.72;100313.38;4965983;28;20062;-77
2023/01/10 03:21:56;;;;;;;2.20;0.20;;;;;;;2.50;77.50;100319.38;4965677;28;20100;-77
2023/01/10 03:24:28;;;;;;;0.57;0.30;;;;;;;2.53;77.29;100318.53;4962445;28;20061;-78
2023/01/10 03:27:01;;;;;;;0.40;0.20;;;;;;;2.53;77.83;100319.41;4963494;28;20047;-78
2023/01/10 03:29:32;;;;;;;0.88;0.57;;;;;;;2.51;77.42;100317.69;4966849;28;20051;-78
2023/01/10 03:32:04;;;;;;;0.20;0.10;;;;;;;2.51;77.25;100322.84;4964950;28;20058;-78
2023/01/10 03:34:34;;;;;;;0.20;0.15;;;;;;;2.50;77.84;100310.78;4962239;28;20070;-78
2023/01/10 03:37:09;;;;;;;3.70;0.60;;;;;;;2.55;77.70;100316.84;4962849;28;20518;-78
2023/01/10 03:39:43;;;;;;;0.50;0.20;;;;;;;2.50;77.96;100314.22;4960973;28;20055;-78
2023/01/10 03:42:15;;;;;;;1.65;0.20;;;;;;;2.53;77.63;100324.56;4963018;28;20047;-78
2023/01/10 03:44:52;;;;;;;2.25;0.10;;;;;;;2.55;77.98;100324.59;4964747;28;20895;-77
2023/01/10 03:47:28;;;;;;;2.55;0.30;;;;;;;2.54;77.44;100325.44;4963847;28;20046;-81
2023/01/10 03:50:00;;;;;;;0.63;0.30;;;;;;;2.53;77.66;100329.72;4966462;28;20162;-72
2023/01/10 03:52:28;;;;;;;0.77;0.20;;;;;;;2.41;77.41;100309.88;4961082;28;20058;-72
2023/01/10 03:54:57;;;;;;;0.60;0.20;;;;;;;2.54;77.08;100328.03;4962750;28;20484;-69
2023/01/10 03:57:25;;;;;;;0.65;0.22;;;;;;;2.53;77.59;100328.84;4960730;28;20435;-69
2023/01/10 03:59:55;;;;;;;2.38;0.47;;;;;;;2.53;77.21;100328.84;4958887;28;20062;-69
2023/01/10 04:02:22;;;;;;;0.47;0.20;;;;;;;2.37;77.69;100303.00;4959415;28;20051;-69
2023/01/10 04:04:49;;;;;;;0.60;0.30;;;;;;;2.52;77.10;100333.16;4958775;28;20051;-70
2023/01/10 04:07:17;;;;;;;0.30;0.20;;;;;;;2.52;77.44;100338.31;4964882;28;20044;-70
2023/01/10 04:09:44;;;;;;;1.02;0.35;;;;;;;2.53;77.73;100328.84;4959002;28;20059;-70
2023/01/10 04:12:11;;;;;;;0.63;0.30;;;;;;;2.53;77.72;100336.59;4960845;28;20055;-69
2023/01/10 04:14:37;;;;;;;1.75;0.20;;;;;;;2.53;78.04;100340.03;4961637;28;20053;-70
2023/01/10 04:17:05;;;;;;;1.60;0.30;;;;;;;2.55;77.65;100342.63;4956389;28;20052;-69
2023/01/10 04:19:31;;;;;;;0.70;0.20;;;;;;;2.55;78.15;100347.78;4959093;28;20044;-69
2023/01/10 04:21:58;;;;;;;0.50;0.30;;;;;;;2.55;77.57;100352.94;4958984;28;20051;-69
2023/01/10 04:24:26;;;;;;;0.90;0.55;;;;;;;2.56;78.11;100344.34;4962818;28;20063;-70
2023/01/10 04:26:53;;;;;;;0.35;0.20;;;;;;;2.56;78.03;100349.50;4962483;28;20063;-69
2023/01/10 04:29:20;;;;;;;0.65;0.30;;;;;;;2.57;77.63;100352.13;4963682;28;20136;-70
2023/01/10 04:31:47;;;;;;;0.40;0.20;;;;;;;2.58;78.23;100347.81;4960215;28;20043;-70
2023/01/10 04:34:14;;;;;;;0.43;0.20;;;;;;;2.60;78.19;100351.28;4964844;28;20526;-70
2023/01/10 04:36:41;;;;;;;0.40;0.20;;;;;;;2.61;77.90;100345.25;4963162;28;20051;-69
2023/01/10 04:39:08;;;;;;;0.93;0.40;;;;;;;2.63;77.70;100343.56;4962853;28;20043;-70
2023/01/10 04:41:36;;;;;;;0.30;0.20;;;;;;;2.64;77.88;100342.69;4962860;28;20046;-69
2023/01/10 04:44:04;;;;;;;0.80;0.20;;;;;;;2.63;77.99;100330.66;4963637;28;20051;-69
2023/01/10 04:46:31;;;;;;;0.40;0.20;;;;;;;2.66;78.28;100336.69;4962612;28;20066;-70
2023/01/10 04:48:58;;;;;;;1.05;0.30;;;;;;;2.69;77.88;100346.16;4963295;28;20061;-70
2023/01/10 04:51:25;;;;;;;0.90;0.30;;;;;;;2.69;77.90;100341.00;4963566;28;20109;-69
2023/01/10 04:53:52;;;;;;;0.30;0.20;;;;;;;2.71;78.02;100339.31;4962100;28;20055;-70
2023/01/10 04:56:21;;;;;;;1.10;0.30;;;;;;;2.69;78.01;100331.56;4963098;28;20051;-69
2023/01/10 04:58:50;;;;;;;0.85;0.20;;;;;;;2.72;77.97;100335.88;4963276;28;20490;-69
2023/01/10 05:01:19;;;;;;;1.88;0.30;;;;;;;2.62;77.90;100319.50;4961714;28;20722;-70
2023/01/10 05:03:47;;;;;;;1.90;0.20;;;;;;;2.73;78.15;100327.28;4965359;28;20050;-69
2023/01/10 05:06:14;;;;;;;1.50;0.40;;;;;;;2.74;78.11;100333.31;4962621;28;20058;-69
2023/01/10 05:08:41;;;;;;;1.27;0.40;;;;;;;2.74;77.99;100328.16;4966230;28;20051;-70
2023/01/10 05:11:07;;;;;;;1.38;0.20;;;;;;;2.77;78.25;100333.34;4960275;28;20062;-69
2023/01/10 05:13:34;;;;;;;0.50;0.30;;;;;;;2.77;78.28;100333.34;4959105;28;20058;-69
2023/01/10 05:16:03;;;;;;;1.20;0.40;;;;;;;2.78;78.34;100330.75;4965271;28;20048;-69
2023/01/10 05:18:30;;;;;;;1.02;0.40;;;;;;;2.79;78.32;100334.19;4957340;28;20055;-69
2023/01/10 05:21:00;;;;;;;1.70;0.20;;;;;;;2.80;78.02;100329.06;4963366;28;20047;-69
2023/01/10 05:23:28;;;;;;;1.13;0.25;;;;;;;2.82;77.70;100339.41;4961965;28;20415;-70
2023/01/10 05:25:55;;;;;;;0.70;0.30;;;;;;;2.79;78.19;100331.59;4962575;28;20065;-70
2023/01/10 05:28:22;;;;;;;0.80;0.50;;;;;;;2.80;77.81;100329.06;4958760;28;20050;-70
2023/01/10 05:30:49;;;;;;;0.30;0.28;;;;;;;2.84;78.09;100335.94;4961055;28;20050;-70
2023/01/10 05:33:17;;;;;;;0.75;0.20;;;;;;;2.86;78.04;100338.53;4960162;28;20050;-69
2023/01/10 05:35:44;;;;;;;0.70;0.32;;;;;;;2.85;78.52;100334.25;4965790;28;20062;-70
2023/01/10 05:38:11;;;;;;;2.33;0.32;;;;;;;2.88;78.12;100334.25;4966929;28;20043;-69
2023/01/10 05:40:37;;;;;;;0.50;0.35;;;;;;;2.88;77.91;100332.53;4963451;28;20055;-70
2023/01/10 05:43:04;;;;;;;1.42;0.40;;;;;;;2.89;78.78;100329.09;4961284;28;20054;-70
2023/01/10 05:45:31;;;;;;;0.50;0.40;;;;;;;2.90;78.79;100335.13;4960251;28;20499;-70
2023/01/10 05:47:58;;;;;;;0.70;0.40;;;;;;;2.92;78.51;100334.28;4961676;28;20043;-70
2023/01/10 05:50:26;;;;;;;2.15;0.40;;;;;;;2.93;78.44;100345.44;4964520;28;20073;-69
2023/01/10 05:52:53;;;;;;;1.88;0.65;;;;;;;2.93;78.38;100341.19;4963145;28;20046;-69
2023/01/10 05:55:20;;;;;;;0.98;0.43;;;;;;;2.96;78.67;100337.75;4958214;28;20043;-69
2023/01/10 05:57:46;;;;;;;0.63;0.43;;;;;;;2.96;78.58;100340.34;4962585;28;20054;-68
2023/01/10 06:00:15;;;;;;;2.45;0.40;;;;;;;2.99;78.46;100345.50;4961989;28;20047;-68
2023/01/10 06:02:42;;;;;;;2.05;0.50;;;;;;;3.01;78.82;100342.91;4962203;28;20051;-68
2023/01/10 06:05:09;;;;;;;0.70;0.50;;;;;;;3.02;78.86;100344.66;4959974;28;20063;-68
2023/01/10 06:07:37;;;;;;;1.38;0.60;;;;;;;3.03;78.94;100336.91;4961837;28;20053;-68
2023/01/10 06:10:05;;;;;;;2.00;0.50;;;;;;;3.05;78.54;100337.78;4961108;28;20047;-68
2023/01/10 06:12:32;;;;;;;2.17;0.90;;;;;;;3.02;78.92;100331.75;4956191;28;20051;-68
2023/01/10 06:14:59;;;;;;;2.67;0.40;;;;;;;3.09;78.85;100343.81;4961350;28;20050;-68
2023/01/10 06:17:26;;;;;;;1.13;0.60;;;;;;;3.10;78.38;100348.13;4962488;28;20054;-70
2023/01/10 06:19:52;;;;;;;4.10;0.60;;;;;;;3.12;78.85;100354.16;4962550;28;20074;-71
2023/01/10 06:22:19;;;;;;;0.85;0.70;;;;;;;3.14;78.96;100352.47;4958793;28;20058;-71
2023/01/10 06:24:47;;;;;;;1.08;0.65;;;;;;;3.17;79.02;100357.63;4959380;28;20054;-71
2023/01/10 06:27:14;;;;;;;1.25;0.50;;;;;;;3.19;78.60;100355.03;4960519;28;20062;-71
2023/01/10 06:29:41;;;;;;;0.90;0.57;;;;;;;3.20;78.96;100355.06;4963057;28;20046;-71
2023/01/10 06:32:08;;;;;;;1.55;0.60;;;;;;;3.22;79.15;100361.09;4958956;28;20047;-70
2023/01/10 06:34:35;;;;;;;1.55;0.60;;;;;;;3.25;79.05;100357.69;4959299;28;20065;-70
2023/01/10 06:37:02;;;;;;;2.25;0.70;;;;;;;3.27;79.12;100362.00;4956581;28;20485;-69
2023/01/10 06:39:29;;;;;;;2.95;0.57;;;;;;;3.30;79.12;100361.13;4961681;28;20495;-71
2023/01/10 06:41:57;;;;;;;3.00;0.70;;;;;;;3.31;79.13;100360.28;4962694;28;20051;-71
2023/01/10 06:44:24;;;;;;;1.27;0.50;;;;;;;3.32;79.05;100360.28;4934254;28;20097;-70
2023/01/10 06:46:50;;;;;;;1.00;0.80;;;;;;;3.31;78.58;100355.97;4960343;28;20047;-71
2023/01/10 06:49:17;;;;;;;3.42;0.80;;;;;;;3.35;79.16;100360.28;4961155;28;20047;-71
2023/01/10 06:51:44;;;;;;;1.67;0.57;;;;;;;3.38;78.81;100364.59;4958000;28;20059;-71
2023/01/10 06:54:11;;;;;;;1.80;0.82;;;;;;;3.37;78.88;100353.41;4960957;28;20051;-72
2023/01/10 06:56:38;;;;;;;1.00;0.60;;;;;;;3.41;78.90;100364.63;4956738;28;20048;-70
2023/01/10 06:59:06;;;;;;;2.50;0.73;;;;;;;3.44;78.77;100366.34;4961194;28;20051;-69
2023/01/10 07:01:33;;;;;;;1.52;0.82;;;;;;;3.46;78.85;100372.38;4957333;28;20058;-70
2023/01/10 07:03:59;;;;;;;2.00;0.90;;;;;;;3.48;78.87;100373.28;4964312;28;20047;-69
2023/01/10 07:06:26;;;;;;;0.82;0.52;;;;;;;3.48;78.78;100368.09;4936717;28;20057;-67
2023/01/10 07:08:55;;;;;;;1.92;0.70;;;;;;;3.51;79.18;100368.13;4958316;28;20043;-69
2023/01/10 07:11:22;;;;;;;2.30;1.48;;;;;;;3.53;79.24;100375.00;4960115;28;20121;-69
2023/01/10 07:13:50;;;;;;;3.05;1.23;;;;;;;3.54;78.82;100386.19;4956103;28;20491;-70
2023/01/10 07:16:18;;;;;;;2.20;1.23;;;;;;;3.56;78.99;100380.19;4961637;28;20047;-70
2023/01/10 07:18:45;;;;;;;2.05;0.88;;;;;;;3.58;79.20;100375.00;4959084;28;20047;-68
2023/01/10 07:21:12;;;;;;;1.60;1.00;;;;;;;3.56;78.68;100367.28;4958890;28;20062;-72
2023/01/10 07:23:39;;;;;;;4.97;1.50;;;;;;;3.61;79.15;100382.75;4957606;28;20051;-71
2023/01/10 07:26:08;;;;;;;3.05;1.45;;;;;;;3.62;78.72;100381.94;4957569;28;20043;-71
2023/01/10 07:28:35;;;;;;;2.95;0.90;;;;;;;3.62;78.75;100388.81;4956570;28;20047;-71
2023/01/10 07:31:04;;;;;;;4.15;1.45;;;;;;;3.63;79.06;100390.53;4957692;28;20525;-71
2023/01/10 07:33:32;;;;;;;3.95;1.77;;;;;;;3.67;78.72;100405.19;4959239;28;20129;-71
2023/01/10 07:36:00;;;;;;;2.40;1.55;;;;;;;3.68;79.07;100405.19;4960453;28;20054;-71
2023/01/10 07:38:27;;;;;;;4.95;2.35;;;;;;;3.67;79.02;100410.34;4959987;28;20054;-73
2023/01/10 07:40:54;;;;;;;4.10;1.95;;;;;;;3.70;78.87;100418.97;4960098;28;20069;-73
2023/01/10 07:43:21;;;;;;;3.42;1.85;;;;;;;3.70;78.73;100418.97;4961940;28;20048;-72
2023/01/10 07:45:48;;;;;;;4.10;2.22;;;;;;;3.71;78.85;100428.44;4956377;28;20047;-74
2023/01/10 07:48:15;;;;;;;3.22;2.78;;;;;;;3.71;79.13;100431.03;4958963;28;20396;-70
2023/01/10 07:50:43;;;;;;;3.83;1.83;;;;;;;3.73;78.80;100443.94;4956342;28;20404;-70
2023/01/10 07:53:10;;;;;;;3.35;1.98;;;;;;;3.73;78.83;100444.81;4957654;28;20067;-69
2023/01/10 07:55:39;;;;;;;4.05;1.95;;;;;;;3.73;78.95;100450.00;4959139;28;20040;-72
2023/01/10 07:58:07;;;;;;;3.08;1.88;;;;;;;3.74;79.01;100451.72;4963974;28;20478;-72
2023/01/10 08:00:34;;;;;;;3.65;2.13;;;;;;;3.76;78.90;100456.91;4962725;28;20047;-71
2023/01/10 08:03:01;;;;;;;3.80;1.90;;;;;;;3.75;78.96;100458.59;4963961;28;20050;-71
2023/01/10 08:05:28;;;;;;;3.10;1.73;;;;;;;3.76;78.80;100464.66;4963124;28;20146;-71
2023/01/10 08:07:58;;;;;;;4.57;2.00;;;;;;;3.77;78.85;100462.06;4960693;28;20504;-71
2023/01/10 08:10:26;;;;;;;3.75;1.83;;;;;;;3.74;78.86;100456.88;4963821;28;20138;-71
2023/01/10 08:12:53;;;;;;;2.85;1.60;;;;;;;3.78;79.00;100463.78;4963220;28;20046;-70
2023/01/10 08:15:20;;;;;;;2.47;1.50;;;;;;;3.80;78.74;100472.41;4964522;28;20046;-70
2023/01/10 08:17:47;;;;;;;3.10;1.42;;;;;;;3.81;78.80;100481.00;4961272;28;20047;-71
2023/01/10 08:20:14;;;;;;;3.15;1.45;;;;;;;3.81;78.85;100476.72;4961802;28;20050;-72
2023/01/10 08:22:41;;;;;;;2.03;1.23;;;;;;;3.81;78.88;100479.31;4963556;28;20062;-71
2023/01/10 08:25:10;;;;;;;2.75;1.60;;;;;;;3.79;78.88;100473.25;4962484;28;20047;-74
2023/01/10 08:27:37;;;;;;;3.28;2.13;;;;;;;3.79;78.58;100473.25;4964061;28;20051;-70
2023/01/10 08:30:04;;;;;;;3.38;1.23;;;;;;;3.84;78.58;100478.44;4962890;28;20046;-73
2023/01/10 08:32:31;;;;;;;2.47;1.45;;;;;;;3.85;78.59;100489.66;4964511;28;20047;-72
2023/01/10 08:34:58;;;;;;;1.65;1.27;;;;;;;3.86;78.73;100491.38;4964063;28;20054;-73
2023/01/10 08:37:25;;;;;;;2.30;1.42;;;;;;;3.87;78.62;100495.69;4962354;28;20051;-73
2023/01/10 08:39:52;;;;;;;2.85;1.50;;;;;;;3.86;79.00;100491.38;4962032;28;20046;-72
2023/01/10 08:42:20;;;;;;;3.80;1.33;;;;;;;3.88;78.62;100489.66;4962894;28;20046;-70
2023/01/10 08:44:47;;;;;;;3.67;1.80;;;;;;;3.90;78.84;100501.75;4963229;28;20047;-70
2023/01/10 08:47:14;;;;;;;3.05;1.38;;;;;;;3.89;78.64;100502.56;4962673;28;20039;-74
2023/01/10 08:49:41;;;;;;;3.10;1.65;;;;;;;3.93;78.97;100508.66;4964235;28;20058;-73
2023/01/10 08:52:08;;;;;;;5.10;2.03;;;;;;;3.93;78.87;100511.22;4966877;28;20058;-72
2023/01/10 08:54:35;;;;;;;3.10;1.63;;;;;;;3.94;79.00;100510.38;4965146;28;20109;-73
2023/01/10 08:57:02;;;;;;;4.50;1.80;;;;;;;3.96;78.80;100516.41;4963580;28;20055;-74
2023/01/10 08:59:30;;;;;;;4.13;1.70;;;;;;;3.97;78.91;100518.13;4964110;28;20051;-71
2023/01/10 09:01:58;;;;;;;3.92;1.80;;;;;;;3.99;78.72;100529.34;4959828;28;20403;-70
2023/01/10 09:04:27;;;;;;;1.77;1.15;;;;;;;3.97;78.81;100524.16;4962878;28;20069;-70
2023/01/10 09:06:54;;;;;;;2.22;1.60;;;;;;;3.97;78.75;100525.88;4959096;28;20046;-73
2023/01/10 09:09:21;;;;;;;2.30;1.63;;;;;;;3.99;78.70;100529.34;4959744;28;20047;-71
2023/01/10 09:11:48;;;;;;;2.15;1.58;;;;;;;4.02;78.72;100535.38;4961562;28;20043;-72
2023/01/10 09:14:15;;;;;;;5.13;1.75;;;;;;;4.04;78.99;100532.78;4959946;28;20055;-70
2023/01/10 09:16:45;;;;;;;1.90;1.45;;;;;;;4.05;78.74;100547.47;4961528;28;20067;-72
2023/01/10 09:19:11;;;;;;;2.85;1.35;;;;;;;4.06;78.65;100552.63;4960980;28;20138;-73
2023/01/10 09:21:38;;;;;;;2.92;1.38;;;;;;;4.08;79.00;100562.97;4961669;28;20051;-72
2023/01/10 09:24:06;;;;;;;3.75;1.35;;;;;;;4.08;78.80;100565.56;4967451;28;20055;-72
2023/01/10 09:26:33;;;;;;;2.78;1.10;;;;;;;4.09;78.78;100562.09;4960823;28;20047;-73
2023/01/10 09:28:59;;;;;;;1.95;1.23;;;;;;;4.11;78.67;100572.47;4961788;28;20431;-70
2023/01/10 09:31:26;;;;;;;1.75;1.15;;;;;;;4.11;78.82;100567.31;4962815;28;20047;-71
2023/01/10 09:33:54;;;;;;;1.45;0.70;;;;;;;4.13;78.78;100576.78;4960748;28;20105;-70
2023/01/10 09:36:21;;;;;;;2.25;1.20;;;;;;;4.12;78.78;100581.94;4957499;28;20054;-70
2023/01/10 09:38:48;;;;;;;1.67;1.08;;;;;;;4.15;78.92;100581.97;4963762;28;20059;-71
2023/01/10 09:41:35;;;;;;;2.30;1.02;;;;;;;4.08;78.99;100569.88;4964285;28;20057;-74
2023/01/10 09:44:05;;;;;;;2.75;1.50;;;;;;;4.16;78.78;100583.69;4964413;28;20058;-74
2023/01/10 09:46:49;;;;;;;1.63;1.05;;;;;;;4.17;78.76;100591.44;4964842;28;20407;-74
2023/01/10 09:49:26;;;;;;;2.30;1.20;;;;;;;4.17;78.78;100594.03;4965427;28;20066;-77
2023/01/10 09:51:56;;;;;;;1.83;1.60;;;;;;;4.19;78.82;100594.06;4960481;28;20054;-75
2023/01/10 09:54:28;;;;;;;1.95;1.15;;;;;;;4.20;78.74;100603.53;4963920;28;20121;-74
2023/01/10 09:56:55;;;;;;;1.65;0.80;;;;;;;4.07;78.85;100576.78;4963146;28;20388;-74
2023/01/10 09:59:25;;;;;;;4.22;1.55;;;;;;;4.21;78.85;100603.56;4963638;28;20051;-74
2023/01/10 10:01:58;;;;;;;2.78;1.17;;;;;;;4.18;78.83;100598.34;4961624;28;20065;-74
2023/01/10 10:04:30;;;;;;;1.17;0.93;;;;;;;4.23;78.96;100606.97;4963331;28;20058;-74
2023/01/10 10:06:57;;;;;;;2.20;1.00;;;;;;;4.23;78.97;100606.97;4963640;28;20054;-71
2023/01/10 10:09:28;;;;;;;1.90;1.02;;;;;;;4.23;78.71;100614.75;4961046;28;20125;-73
2023/01/10 10:12:14;;;;;;;3.65;1.00;;;;;;;4.25;79.20;100610.44;4960656;28;20046;-74
2023/01/10 10:15:01;;;;;;;4.68;1.30;;;;;;;4.26;78.92;100612.16;4963085;28;20050;-74
2023/01/10 10:17:43;;;;;;;3.13;1.50;;;;;;;4.28;78.96;100617.38;4964876;28;20054;-75
2023/01/10 10:20:22;;;;;;;3.88;1.33;;;;;;;4.24;78.85;100608.72;4959430;28;20061;-74
2023/01/10 10:23:02;;;;;;;2.95;1.63;;;;;;;4.21;79.14;100608.72;4958621;28;20051;-72
2023/01/10 10:25:46;;;;;;;4.72;1.15;;;;;;;4.31;78.83;100626.84;4960240;28;20046;-74
2023/01/10 10:28:37;;;;;;;2.38;1.30;;;;;;;4.33;78.95;100625.16;4960902;28;20038;-71
2023/01/10 10:31:13;;;;;;;2.47;1.83;;;;;;;4.33;78.92;100618.25;4963507;28;20095;-71
2023/01/10 10:33:52;;;;;;;4.65;1.50;;;;;;;4.35;78.98;100618.25;4959531;28;20043;-72
2023/01/10 10:36:24;;;;;;;2.95;1.08;;;;;;;4.35;79.04;100626.00;4960870;28;20062;-74
2023/01/10 10:38:54;;;;;;;2.97;1.05;;;;;;;4.36;79.21;100622.56;4957034;28;20055;-73
2023/01/10 10:41:31;;;;;;;4.15;1.08;;;;;;;4.38;79.13;100624.28;4963353;28;20093;-74
2023/01/10 10:44:03;;;;;;;2.35;0.80;;;;;;;4.39;79.19;100626.03;4962056;28;20051;-74
2023/01/10 10:46:31;;;;;;;5.47;1.30;;;;;;;4.40;78.87;100621.72;4958543;28;20051;-74
2023/01/10 10:49:00;;;;;;;1.67;1.40;;;;;;;4.42;78.98;100628.63;4965389;28;20047;-73
2023/01/10 10:51:40;;;;;;;1.30;0.60;;;;;;;4.45;78.92;100632.97;4960729;28;20507;-74
2023/01/10 10:54:11;;;;;;;3.47;1.48;;;;;;;4.45;78.90;100638.13;4946761;28;20051;-74
2023/01/10 10:56:38;;;;;;;4.90;1.13;;;;;;;4.48;79.00;100643.31;4960106;28;20051;-74
2023/01/10 10:59:05;;;;;;;1.50;0.80;;;;;;;4.48;78.93;100648.47;4965928;28;20051;-74
2023/01/10 11:01:32;;;;;;;1.55;0.80;;;;;;;4.37;78.97;100634.63;4961664;28;20062;-74
2023/01/10 11:04:02;;;;;;;3.97;0.80;;;;;;;4.50;79.04;100650.22;4958046;28;20048;-73
2023/01/10 11:06:32;;;;;;;2.65;0.77;;;;;;;4.53;79.12;100656.28;4964085;28;20067;-76
2023/01/10 11:09:03;;;;;;;2.75;1.00;;;;;;;4.53;78.97;100651.97;4962190;28;20043;-74
2023/01/10 11:11:34;;;;;;;1.05;0.85;;;;;;;4.55;78.95;100654.53;4960756;28;20672;-73
2023/01/10 11:14:03;;;;;;;2.47;1.23;;;;;;;4.56;78.84;100656.28;4957645;28;20043;-73
2023/01/10 11:16:32;;;;;;;1.83;1.00;;;;;;;4.56;78.87;100661.47;4963930;28;20051;-73
2023/01/10 11:19:18;;;;;;;3.38;1.00;;;;;;;4.57;78.77;100656.28;4960273;28;20043;-69
2023/01/10 11:21:55;;;;;;;3.58;1.77;;;;;;;4.59;78.85;100656.28;4960023;28;20055;-69
2023/01/10 11:24:27;;;;;;;3.92;1.35;;;;;;;4.59;78.67;100659.75;4962558;28;20073;-70
2023/01/10 11:26:56;;;;;;;1.05;0.70;;;;;;;4.58;78.80;100655.44;4963146;28;20054;-70
2023/01/10 11:29:26;;;;;;;2.65;0.85;;;;;;;4.60;78.72;100651.13;4960229;28;20049;-72
2023/01/10 11:31:55;;;;;;;2.42;1.05;;;;;;;4.60;78.80;100647.66;4958789;28;20051;-69
2023/01/10 11:34:25;;;;;;;2.90;1.02;;;;;;;4.62;78.91;100653.72;4959053;28;20526;-70
2023/01/10 11:36:57;;;;;;;1.67;1.20;;;;;;;4.62;78.52;100654.56;4958995;28;20058;-70
2023/01/10 11:39:24;;;;;;;3.40;1.35;;;;;;;4.63;78.58;100653.72;4958456;28;20102;-69
2023/01/10 11:41:52;;;;;;;1.58;1.17;;;;;;;4.64;78.74;100660.63;4960251;28;20050;-68
2023/01/10 11:44:23;;;;;;;6.97;1.33;;;;;;;4.62;78.67;100654.56;4957145;28;20110;-70
2023/01/10 11:46:54;;;;;;;4.90;1.30;;;;;;;4.66;78.61;100653.72;4954849;28;20511;-69
2023/01/10 11:49:28;;;;;;;3.35;1.70;;;;;;;4.68;78.26;100656.31;4959324;28;20046;-70